createdAt,value
2017-08-18T00:02:26.773Z,4.20
2017-08-18T00:04:55.971Z,3.03
2017-08-18T00:07:24.311Z,4.27
2017-08-18T00:09:52.549Z,4.50
2017-08-18T00:12:20.894Z,3.53
2017-08-18T00:14:49.972Z,6.40
2017-08-18T00:17:18.247Z,6.80
2017-08-18T00:19:46.671Z,5.13
2017-08-18T00:22:14.962Z,5.23
2017-08-18T00:24:43.491Z,7.40
2017-08-18T00:27:12.534Z,3.57
2017-08-18T00:29:41.026Z,5.23
2017-08-18T00:32:09.502Z,8.33
2017-08-18T00:34:37.860Z,10.07
2017-08-18T00:37:06.136Z,10.03
2017-08-18T00:39:34.496Z,4.13
2017-08-18T00:42:02.912Z,4.60
2017-08-18T00:44:31.205Z,8.50
2017-08-18T00:46:59.571Z,4.57
2017-08-18T00:49:27.917Z,6.23
2017-08-18T00:52:09.141Z,6.57
2017-08-18T00:54:37.490Z,6.53
2017-08-18T00:57:06.559Z,5.47
2017-08-18T00:59:34.878Z,4.60
2017-08-18T01:02:03.184Z,4.97
2017-08-18T01:04:31.473Z,3.77
2017-08-18T01:06:59.806Z,5.07
2017-08-18T01:09:28.159Z,4.20
2017-08-18T01:11:56.484Z,5.60
2017-08-18T01:14:24.830Z,4.33
2017-08-18T01:16:53.121Z,4.53
2017-08-18T01:19:21.494Z,6.83
2017-08-18T01:21:49.764Z,5.10
2017-08-18T01:24:18.825Z,5.47
2017-08-18T01:26:47.152Z,7.20
2017-08-18T01:29:15.417Z,3.70
2017-08-18T01:31:44.513Z,3.90
2017-08-18T01:34:12.895Z,7.33
2017-08-18T01:36:41.239Z,3.87
2017-08-18T01:39:09.493Z,13.07
2017-08-18T01:41:37.822Z,17.87
2017-08-18T01:44:06.298Z,6.17
2017-08-18T01:46:34.554Z,5.47
2017-08-18T01:49:02.958Z,7.10
2017-08-18T01:51:32.003Z,6.20
2017-08-18T01:54:00.425Z,10.97
2017-08-18T01:56:28.762Z,9.93
2017-08-18T01:58:57.120Z,5.37
2017-08-18T02:01:25.495Z,4.50
2017-08-18T02:03:53.845Z,6.73
2017-08-18T02:06:22.280Z,4.03
2017-08-18T02:08:50.708Z,9.20
2017-08-18T02:11:19.109Z,4.20
2017-08-18T02:13:47.459Z,5.43
2017-08-18T02:16:15.735Z,6.50
2017-08-18T02:18:44.191Z,6.10
2017-08-18T02:21:12.560Z,4.00
2017-08-18T02:23:40.879Z,16.67
2017-08-18T02:26:09.147Z,7.13
2017-08-18T02:28:37.457Z,5.83
2017-08-18T02:31:05.830Z,6.93
2017-08-18T02:33:34.125Z,8.70
2017-08-18T02:36:02.460Z,6.20
2017-08-18T02:38:30.955Z,10.07
2017-08-18T02:40:59.391Z,13.27
2017-08-18T02:43:27.873Z,6.10
2017-08-18T02:45:56.461Z,6.80
2017-08-18T02:48:24.737Z,7.03
2017-08-18T02:50:53.805Z,6.80
2017-08-18T02:53:22.276Z,11.03
2017-08-18T02:55:51.560Z,16.53
2017-08-18T02:58:20.002Z,12.13
2017-08-18T03:00:48.477Z,17.13
2017-08-18T03:03:17.880Z,11.30
2017-08-18T03:05:46.309Z,13.63
2017-08-18T03:08:15.477Z,7.57
2017-08-18T03:10:43.839Z,9.80
2017-08-18T03:13:12.366Z,11.23
2017-08-18T03:15:40.805Z,9.53
2017-08-18T03:18:09.193Z,10.70
2017-08-18T03:20:37.576Z,5.80
2017-08-18T03:23:05.905Z,9.87
2017-08-18T03:25:34.987Z,5.90
2017-08-18T03:28:04.112Z,8.30
2017-08-18T03:30:33.177Z,12.03
2017-08-18T03:33:01.604Z,9.40
2017-08-18T03:35:30.772Z,11.13
2017-08-18T03:37:59.230Z,7.23
2017-08-18T03:40:27.676Z,9.57
2017-08-18T03:42:56.016Z,7.47
2017-08-18T03:45:25.066Z,5.97
2017-08-18T03:47:54.168Z,5.90
2017-08-18T03:50:22.637Z,14.80
2017-08-18T03:52:50.950Z,9.63
2017-08-18T03:55:19.211Z,12.80
2017-08-18T03:57:47.497Z,14.73
2017-08-18T04:00:15.732Z,15.70
2017-08-18T04:02:44.209Z,6.33
2017-08-18T04:05:13.294Z,11.63
2017-08-18T04:07:42.359Z,11.83
2017-08-18T04:10:10.767Z,6.87
2017-08-18T04:12:39.105Z,8.90
2017-08-18T04:15:07.401Z,10.07
2017-08-18T04:17:35.738Z,8.30
2017-08-18T04:20:04.066Z,9.30
2017-08-18T04:22:33.271Z,8.60
2017-08-18T04:25:01.704Z,30.47
2017-08-18T04:27:30.254Z,12.00
2017-08-18T04:29:59.364Z,12.20
2017-08-18T04:32:27.692Z,9.90
2017-08-18T04:34:56.123Z,12.27
2017-08-18T04:37:24.583Z,9.37
2017-08-18T04:39:52.939Z,15.50
2017-08-18T04:42:21.305Z,19.83
2017-08-18T04:44:49.625Z,14.60
2017-08-18T04:47:18.733Z,11.40
2017-08-18T04:49:47.102Z,14.30
2017-08-18T04:52:16.194Z,12.00
2017-08-18T04:54:44.563Z,20.73
2017-08-18T04:57:13.611Z,16.07
2017-08-18T04:59:41.851Z,18.00
2017-08-18T05:02:10.135Z,14.77
2017-08-18T05:04:38.435Z,18.63
2017-08-18T05:07:07.185Z,23.57
2017-08-18T05:09:35.415Z,14.03
2017-08-18T05:12:04.152Z,18.43
2017-08-18T05:14:32.410Z,16.93
2017-08-18T05:17:01.489Z,19.17
2017-08-18T05:19:29.746Z,12.10
2017-08-18T05:21:58.010Z,14.73
2017-08-18T05:24:26.346Z,18.43
2017-08-18T05:26:55.350Z,14.33
2017-08-18T05:29:23.599Z,21.43
2017-08-18T05:31:51.864Z,18.63
2017-08-18T05:34:20.150Z,23.03
2017-08-18T05:36:48.505Z,15.93
2017-08-18T05:39:16.924Z,14.50
2017-08-18T05:41:45.967Z,10.40
2017-08-18T05:44:14.203Z,20.20
2017-08-18T05:46:43.452Z,19.50
2017-08-18T05:49:11.712Z,17.73
2017-08-18T05:51:39.985Z,57.77
2017-08-18T05:54:08.228Z,83.87
2017-08-18T05:56:37.238Z,30.40
2017-08-18T05:59:05.495Z,54.50
2017-08-18T06:01:34.562Z,66.27
2017-08-18T06:04:02.816Z,27.37
2017-08-18T06:06:31.058Z,21.73
2017-08-18T06:08:59.318Z,9.97
2017-08-18T06:11:28.400Z,9.47
2017-08-18T06:13:56.651Z,17.90
2017-08-18T06:16:24.916Z,10.30
2017-08-18T06:18:53.272Z,16.83
2017-08-18T06:21:22.362Z,7.90
2017-08-18T06:23:51.386Z,11.10
2017-08-18T06:26:19.648Z,19.53
2017-08-18T06:28:48.656Z,28.93
2017-08-18T06:31:16.906Z,33.70
2017-08-18T06:33:45.929Z,16.70
2017-08-18T06:36:14.162Z,10.80
2017-08-18T06:38:43.194Z,11.17
2017-08-18T06:41:11.848Z,9.10
2017-08-18T06:43:40.873Z,6.27
2017-08-18T06:46:09.121Z,15.77
2017-08-18T06:48:38.146Z,9.07
2017-08-18T06:51:06.413Z,20.40
2017-08-18T06:53:34.651Z,17.43
2017-08-18T06:56:02.942Z,11.97
2017-08-18T06:58:32.020Z,16.20
2017-08-18T07:01:01.091Z,10.80
2017-08-18T07:03:29.335Z,9.03
2017-08-18T07:05:58.404Z,14.30
2017-08-18T07:08:26.650Z,12.93
2017-08-18T07:10:55.684Z,9.00
2017-08-18T07:13:24.765Z,5.17
2017-08-18T07:15:53.913Z,12.57
2017-08-18T07:18:22.907Z,12.80
2017-08-18T07:20:52.278Z,13.00
2017-08-18T07:23:21.330Z,9.90
2017-08-18T07:25:50.740Z,14.13
2017-08-18T07:28:18.963Z,13.20
2017-08-18T07:30:47.990Z,11.43
2017-08-18T07:33:16.325Z,10.57
2017-08-18T07:35:45.352Z,10.17
2017-08-18T07:38:13.662Z,14.63
2017-08-18T07:40:41.924Z,8.77
2017-08-18T07:43:10.190Z,10.70
2017-08-18T07:45:38.439Z,11.50
2017-08-18T07:48:06.716Z,15.97
2017-08-18T07:50:34.990Z,21.20
2017-08-18T07:53:03.992Z,13.00
2017-08-18T07:55:32.253Z,12.87
2017-08-18T07:58:00.479Z,8.03
2017-08-18T08:00:28.894Z,10.53
2017-08-18T08:02:57.134Z,11.20
2017-08-18T08:05:25.449Z,9.67
2017-08-18T08:07:53.735Z,7.97
2017-08-18T08:10:22.071Z,11.83
2017-08-18T08:12:50.328Z,7.47
2017-08-18T08:15:18.558Z,9.10
2017-08-18T08:17:46.881Z,9.87
2017-08-18T08:20:15.152Z,19.03
2017-08-18T08:22:44.232Z,10.77
2017-08-18T08:25:12.491Z,17.93
2017-08-18T08:27:40.855Z,11.40
2017-08-18T08:30:09.145Z,15.33
2017-08-18T08:32:37.397Z,17.13
2017-08-18T08:35:05.643Z,10.90
2017-08-18T08:37:33.891Z,15.43
2017-08-18T08:40:02.911Z,16.03
2017-08-18T08:42:31.207Z,10.50
2017-08-18T08:44:59.487Z,9.67
2017-08-18T08:47:27.777Z,7.43
2017-08-18T08:49:56.047Z,11.50
2017-08-18T08:52:24.341Z,7.80
2017-08-18T08:54:52.625Z,12.00
2017-08-18T08:57:20.873Z,8.30
2017-08-18T08:59:49.133Z,13.97
2017-08-18T09:02:17.406Z,5.30
2017-08-18T09:04:46.495Z,7.87
2017-08-18T09:07:14.773Z,4.80
2017-08-18T09:09:43.756Z,8.27
2017-08-18T09:12:12.804Z,4.40
2017-08-18T09:14:41.069Z,8.83
2017-08-18T09:17:09.336Z,7.70
2017-08-18T09:19:37.615Z,5.80
2017-08-18T09:22:05.851Z,5.33
2017-08-18T09:24:34.138Z,4.73
2017-08-18T09:27:02.404Z,6.07
2017-08-18T09:29:31.459Z,4.40
2017-08-18T09:31:59.724Z,8.83
2017-08-18T09:34:27.975Z,2.73
2017-08-18T09:36:56.360Z,8.93
2017-08-18T09:39:25.364Z,4.53
2017-08-18T09:41:53.619Z,5.17
2017-08-18T09:44:21.921Z,6.40
2017-08-18T09:46:50.333Z,3.20
2017-08-18T09:52:49.839Z,3.23
2017-08-18T09:55:31.543Z,4.07
2017-08-18T09:58:12.839Z,2.80
2017-08-18T10:00:56.023Z,4.10
2017-08-18T10:03:24.078Z,2.47
2017-08-18T10:05:52.171Z,8.20
2017-08-18T10:08:21.011Z,2.30
2017-08-18T10:10:49.035Z,8.60
2017-08-18T10:13:17.790Z,2.73
2017-08-18T10:15:45.844Z,2.97
2017-08-18T10:18:13.945Z,9.50
2017-08-18T10:20:42.786Z,2.50
2017-08-18T10:23:10.850Z,6.33
2017-08-18T10:25:38.941Z,6.57
2017-08-18T10:28:06.947Z,3.20
2017-08-18T10:30:34.933Z,3.60
2017-08-18T10:33:03.867Z,5.23
2017-08-18T10:35:31.923Z,4.67
2017-08-18T10:38:00.727Z,7.27
2017-08-18T10:40:28.751Z,3.50
2017-08-18T10:42:56.801Z,4.97
2017-08-18T10:45:24.795Z,6.00
2017-08-18T10:47:52.818Z,2.10
2017-08-18T10:50:20.866Z,4.40
2017-08-18T10:52:49.631Z,7.23
2017-08-18T10:55:17.766Z,2.33
2017-08-18T10:57:45.787Z,3.20
2017-08-18T11:00:13.858Z,2.00
2017-08-18T11:02:42.694Z,2.97
2017-08-18T11:05:11.343Z,3.60
2017-08-18T11:07:40.143Z,2.13
2017-08-18T11:10:08.896Z,4.13
2017-08-18T11:12:37.472Z,4.37
2017-08-18T11:15:06.501Z,2.13
2017-08-18T11:17:34.559Z,2.10
2017-08-18T11:20:02.718Z,5.50
2017-08-18T11:22:30.732Z,8.60
2017-08-18T11:24:59.498Z,9.93
2017-08-18T11:27:27.522Z,2.63
2017-08-18T11:29:55.605Z,11.63
2017-08-18T11:32:23.641Z,3.47
2017-08-18T11:34:52.407Z,2.10
2017-08-18T11:37:20.775Z,3.20
2017-08-18T11:39:48.785Z,2.37
2017-08-18T11:42:16.827Z,2.53
2017-08-18T11:44:44.831Z,3.17
2017-08-18T11:47:12.833Z,4.23
2017-08-18T11:49:40.857Z,2.07
2017-08-18T11:52:09.617Z,5.83
2017-08-18T11:54:37.664Z,3.77
2017-08-18T11:57:05.654Z,3.20
2017-08-18T11:59:33.664Z,2.33
2017-08-18T12:02:01.715Z,9.10
2017-08-18T12:04:29.719Z,3.83
2017-08-18T12:06:57.778Z,4.50
2017-08-18T12:09:26.671Z,4.60
2017-08-18T12:11:54.663Z,2.53
2017-08-18T12:14:22.685Z,3.73
2017-08-18T12:16:50.757Z,4.70
2017-08-18T12:19:18.773Z,3.27
2017-08-18T12:21:46.840Z,3.13
2017-08-18T12:24:15.676Z,3.60
2017-08-18T12:26:44.956Z,4.77
2017-08-18T12:29:13.128Z,9.83
2017-08-18T12:31:41.170Z,4.40
2017-08-18T12:34:09.286Z,3.73
2017-08-18T12:36:37.375Z,3.20
2017-08-18T12:39:05.416Z,5.90
2017-08-18T12:41:33.443Z,5.73
2017-08-18T12:44:01.451Z,3.60
2017-08-18T12:46:29.507Z,3.87
2017-08-18T12:48:57.515Z,3.60
2017-08-18T12:51:25.523Z,4.37
2017-08-18T12:53:53.608Z,4.17
2017-08-18T12:56:21.611Z,6.33
2017-08-18T12:58:49.617Z,4.40
2017-08-18T13:01:17.674Z,4.37
2017-08-18T13:03:46.660Z,7.63
2017-08-18T13:06:14.671Z,3.23
2017-08-18T13:08:42.679Z,6.90
2017-08-18T13:11:10.694Z,4.77
2017-08-18T13:13:38.722Z,4.97
2017-08-18T13:16:06.746Z,6.40
2017-08-18T13:18:34.803Z,7.43
2017-08-18T13:21:02.844Z,3.10
2017-08-18T13:23:30.838Z,4.33
2017-08-18T13:25:58.866Z,3.50
2017-08-18T13:28:26.873Z,10.40
2017-08-18T13:30:55.014Z,4.50
2017-08-18T13:33:23.046Z,3.50
2017-08-18T13:35:51.245Z,4.30
2017-08-18T13:38:19.291Z,4.60
2017-08-18T13:40:47.342Z,10.93
2017-08-18T13:43:15.437Z,6.73
2017-08-18T13:45:43.451Z,6.50
2017-08-18T13:48:12.290Z,5.50
2017-08-18T13:50:40.316Z,6.80
2017-08-18T13:53:08.335Z,7.63
2017-08-18T13:55:36.411Z,7.93
2017-08-18T13:58:04.422Z,3.80
2017-08-18T14:00:33.210Z,6.73
2017-08-18T14:03:02.036Z,4.37
2017-08-18T14:05:30.084Z,30.47
2017-08-18T14:07:58.140Z,7.17
2017-08-18T14:10:26.159Z,3.43
2017-08-18T14:12:54.267Z,6.10
2017-08-18T14:15:22.352Z,5.40
2017-08-18T14:17:51.151Z,3.17
2017-08-18T14:20:19.911Z,8.23
2017-08-18T14:22:47.954Z,8.70
2017-08-18T14:25:21.814Z,4.23
2017-08-18T14:27:50.058Z,4.87
2017-08-18T14:30:19.099Z,9.93
2017-08-18T14:32:47.436Z,3.40
2017-08-18T14:35:16.453Z,5.20
2017-08-18T14:37:44.726Z,7.80
2017-08-18T14:40:13.060Z,5.50
2017-08-18T14:42:41.345Z,4.87
2017-08-18T14:45:09.613Z,6.47
2017-08-18T14:47:37.859Z,5.47
2017-08-18T14:50:06.154Z,5.70
2017-08-18T14:52:34.393Z,3.23
2017-08-18T14:55:02.693Z,4.03
2017-08-18T14:57:31.043Z,3.87
2017-08-18T14:59:59.270Z,3.33
2017-08-18T15:02:28.567Z,8.20
2017-08-18T15:04:56.827Z,4.00
2017-08-18T15:07:25.126Z,5.00
2017-08-18T15:09:53.925Z,3.10
2017-08-18T15:12:22.266Z,9.90
2017-08-18T15:14:50.552Z,4.90
2017-08-18T15:17:18.814Z,2.67
2017-08-18T15:19:47.143Z,5.77
2017-08-18T15:22:16.212Z,6.70
2017-08-18T15:24:44.497Z,5.70
2017-08-18T15:27:12.835Z,5.40
2017-08-18T15:29:41.090Z,6.40
2017-08-18T15:32:09.420Z,4.00
2017-08-18T15:34:37.681Z,7.60
2017-08-18T15:37:06.016Z,11.57
2017-08-18T15:39:40.513Z,11.30
2017-08-18T15:42:09.780Z,5.40
2017-08-18T15:44:38.474Z,7.10
2017-08-18T15:47:06.754Z,6.07
2017-08-18T15:49:35.059Z,4.17
2017-08-18T15:52:03.308Z,4.60
2017-08-18T15:54:31.605Z,5.97
2017-08-18T15:56:59.879Z,6.43
2017-08-18T15:59:28.115Z,5.70
2017-08-18T16:01:56.423Z,5.00
2017-08-18T16:04:24.908Z,10.73
2017-08-18T16:06:53.799Z,5.23
2017-08-18T16:09:22.041Z,4.10
2017-08-18T16:11:50.281Z,3.67
2017-08-18T16:14:18.579Z,4.87
2017-08-18T16:16:46.815Z,12.13
2017-08-18T16:19:15.283Z,3.10
2017-08-18T16:21:43.515Z,5.77
2017-08-18T16:24:11.927Z,17.93
2017-08-18T16:26:40.137Z,5.90
2017-08-18T16:29:08.398Z,4.23
2017-08-18T16:31:36.664Z,6.37
2017-08-18T16:34:04.943Z,5.90
2017-08-18T16:36:33.225Z,11.67
2017-08-18T16:39:01.465Z,8.60
2017-08-18T16:41:29.743Z,7.40
2017-08-18T16:43:58.031Z,8.00
2017-08-18T16:46:26.756Z,16.77
2017-08-18T16:48:55.029Z,9.43
2017-08-18T16:51:23.310Z,8.87
2017-08-18T16:53:51.561Z,6.40
2017-08-18T16:56:19.826Z,12.23
2017-08-18T16:58:48.106Z,10.80
2017-08-18T17:01:16.387Z,8.40
2017-08-18T17:03:44.624Z,7.67
2017-08-18T17:06:12.945Z,9.53
2017-08-18T17:08:41.190Z,6.73
2017-08-18T17:11:10.241Z,9.10
2017-08-18T17:13:38.562Z,7.67
2017-08-18T17:16:06.803Z,7.27
2017-08-18T17:18:35.199Z,17.13
2017-08-18T17:21:03.439Z,8.00
2017-08-18T17:23:31.693Z,6.97
2017-08-18T17:26:00.051Z,9.57
2017-08-18T17:28:28.292Z,12.20
2017-08-18T17:30:56.603Z,6.93
2017-08-18T17:33:24.860Z,8.97
2017-08-18T17:35:53.195Z,7.37
2017-08-18T17:38:21.453Z,7.67
2017-08-18T17:40:50.479Z,7.70
2017-08-18T17:43:18.761Z,11.77
2017-08-18T17:45:47.024Z,14.60
2017-08-18T17:48:15.441Z,14.53
2017-08-18T17:50:43.700Z,11.93
2017-08-18T17:53:11.967Z,10.50
2017-08-18T17:55:40.249Z,8.50
2017-08-18T17:58:08.575Z,13.47
2017-08-18T18:00:36.893Z,7.43
2017-08-18T18:03:05.146Z,16.10
2017-08-18T18:05:33.429Z,9.57
2017-08-18T18:08:01.769Z,12.97
2017-08-18T18:10:30.208Z,15.00
2017-08-18T18:12:58.504Z,11.80
2017-08-18T18:15:26.783Z,9.67
2017-08-18T18:17:55.054Z,11.53
2017-08-18T18:20:23.343Z,13.43
2017-08-18T18:22:51.570Z,12.80
2017-08-18T18:25:19.867Z,13.30
2017-08-18T18:27:48.129Z,16.10
2017-08-18T18:30:16.375Z,11.23
2017-08-18T18:32:45.424Z,13.60
2017-08-18T18:35:13.722Z,12.30
2017-08-18T18:37:42.001Z,14.07
2017-08-18T18:40:10.294Z,15.60
2017-08-18T18:42:38.579Z,13.00
2017-08-18T18:45:06.869Z,17.13
2017-08-18T18:47:35.146Z,23.60
2017-08-18T18:50:04.201Z,19.33
2017-08-18T18:52:32.469Z,17.60
2017-08-18T18:55:00.824Z,14.03
2017-08-18T18:57:29.140Z,17.30
2017-08-18T18:59:57.459Z,23.20
2017-08-18T19:02:25.781Z,17.03
2017-08-18T19:04:54.255Z,17.30
2017-08-18T19:07:22.494Z,17.90
2017-08-18T19:09:50.796Z,20.00
2017-08-18T19:12:19.081Z,17.00
2017-08-18T19:14:47.733Z,21.60
2017-08-18T19:17:16.759Z,23.33
2017-08-18T19:19:45.067Z,19.80
2017-08-18T19:22:14.254Z,20.53
2017-08-18T19:24:42.503Z,21.00
2017-08-18T19:27:10.792Z,24.63
2017-08-18T19:29:39.550Z,22.30
2017-08-18T19:32:07.896Z,21.60
2017-08-18T19:34:36.157Z,29.67
2017-08-18T19:37:05.850Z,25.07
2017-08-18T19:39:35.360Z,23.50
2017-08-18T19:42:03.722Z,27.77
2017-08-18T19:44:33.315Z,25.53
2017-08-18T19:47:02.335Z,26.83
2017-08-18T19:49:30.625Z,24.00
2017-08-18T19:51:59.204Z,26.17
2017-08-18T19:54:27.487Z,29.53
2017-08-18T19:56:55.807Z,27.03
2017-08-18T19:59:24.076Z,31.40
2017-08-18T20:01:52.338Z,28.87
2017-08-18T20:04:20.609Z,34.80
2017-08-18T20:06:48.904Z,32.30
2017-08-18T20:09:17.245Z,35.40
2017-08-18T20:11:46.465Z,26.57
2017-08-18T20:14:14.758Z,27.30
2017-08-18T20:16:43.028Z,26.90
2017-08-18T20:19:11.388Z,21.57
2017-08-18T20:21:39.635Z,24.93
2017-08-18T20:24:07.953Z,29.80
2017-08-18T20:26:36.211Z,23.57
2017-08-18T20:29:04.727Z,24.90
2017-08-18T20:31:33.055Z,19.13
2017-08-18T20:34:01.472Z,25.87
2017-08-18T20:36:29.777Z,24.23
2017-08-18T20:38:58.045Z,19.63
2017-08-18T20:41:26.345Z,17.90
2017-08-18T20:43:55.432Z,19.17
2017-08-18T20:46:23.670Z,20.97
2017-08-18T20:48:51.996Z,17.30
2017-08-18T20:51:21.057Z,18.93
2017-08-18T20:53:49.360Z,14.43
2017-08-18T20:56:17.627Z,16.90
2017-08-18T20:58:46.073Z,19.63
2017-08-18T21:01:14.368Z,14.20
2017-08-18T21:03:42.625Z,20.03
2017-08-18T21:06:10.920Z,14.93
2017-08-18T21:08:39.246Z,28.10
2017-08-18T21:11:07.670Z,21.53
2017-08-18T21:13:35.997Z,18.63
2017-08-18T21:16:04.249Z,18.53
2017-08-18T21:18:32.553Z,11.97
2017-08-18T21:21:01.569Z,13.00
2017-08-18T21:23:29.894Z,11.50
2017-08-18T21:25:58.145Z,13.67
2017-08-18T21:28:26.415Z,13.33
2017-08-18T21:30:54.683Z,15.73
2017-08-18T21:33:22.940Z,8.97
2017-08-18T21:35:51.968Z,10.43
2017-08-18T21:38:20.736Z,11.03
2017-08-18T21:40:48.983Z,6.90
2017-08-18T21:43:17.327Z,10.30
2017-08-18T21:45:45.599Z,7.30
2017-08-18T21:48:13.850Z,14.93
2017-08-18T21:50:42.172Z,9.40
2017-08-18T21:53:10.410Z,6.27
2017-08-18T21:55:39.387Z,7.80
2017-08-18T21:58:08.413Z,11.53
2017-08-18T22:00:36.676Z,4.97
2017-08-18T22:03:05.282Z,8.20
2017-08-18T22:05:33.554Z,12.90
2017-08-18T22:08:01.856Z,6.30
2017-08-18T22:10:30.125Z,16.90
2017-08-18T22:12:58.401Z,6.77
2017-08-18T22:15:26.655Z,6.60
2017-08-18T22:17:54.955Z,6.00
2017-08-18T22:20:23.194Z,7.97
2017-08-18T22:22:51.425Z,5.20
2017-08-18T22:25:19.680Z,4.53
2017-08-18T22:27:48.019Z,7.70
2017-08-18T22:30:17.394Z,5.27
2017-08-18T22:32:45.704Z,7.43
2017-08-18T22:35:14.029Z,8.80
2017-08-18T22:37:42.412Z,14.53
2017-08-18T22:40:10.711Z,7.17
2017-08-18T22:42:39.045Z,7.37
2017-08-18T22:45:07.323Z,7.20
2017-08-18T22:47:35.594Z,11.83
2017-08-18T22:50:03.878Z,9.10
2017-08-18T22:52:32.153Z,6.70
2017-08-18T22:55:00.440Z,12.33
2017-08-18T22:57:29.157Z,13.03
2017-08-18T22:59:57.423Z,8.57
2017-08-18T23:02:26.479Z,11.63
2017-08-18T23:04:54.746Z,23.43
2017-08-18T23:07:23.003Z,17.03
2017-08-18T23:09:52.035Z,8.00
2017-08-18T23:12:20.333Z,9.40
2017-08-18T23:14:48.615Z,7.63
2017-08-18T23:17:16.958Z,9.50
2017-08-18T23:19:45.216Z,9.73
2017-08-18T23:22:14.209Z,8.83
2017-08-18T23:24:42.544Z,13.57
2017-08-18T23:27:10.871Z,17.67
2017-08-18T23:29:39.173Z,10.87
2017-08-18T23:32:07.449Z,8.33
2017-08-18T23:34:35.710Z,17.90
2017-08-18T23:37:03.990Z,33.00
2017-08-18T23:39:32.311Z,13.53
2017-08-18T23:42:01.208Z,11.60
2017-08-18T23:44:29.473Z,7.50
2017-08-18T23:46:57.749Z,18.40
2017-08-18T23:49:26.057Z,14.80
2017-08-18T23:51:54.307Z,12.70
2017-08-18T23:54:22.582Z,16.67
2017-08-18T23:56:50.855Z,15.50
2017-08-18T23:59:19.125Z,16.37
